KCUB/CUB METAR and TAF weather

Enter ICAO airport designator
Station Type Date Time Source
KCUB METAR 2020/09/25 19:53 UTC NOAA

KCUB 251953Z AUTO 30007KT 10SM FEW020 SCT042 28/23 A2995 RMK AO2 SLP138 T02780228 TSNO


Station Type Date Time Source
KCUB Decoded METAR 2020/09/25 19:53 UTC NOAA

OWENS DOWNTOWN AIRPORT, SC, United States (KCUB) 33-58N 081-00W 56M
Sep 25, 2020 - 03:53 PM EDT / 2020.09.25 1953 UTC
Wind: from the WNW (300 degrees) at 8 MPH (7 KT):0
Visibility: 10 mile(s):0
Sky conditions: partly cloudy
Temperature: 82.0 F (27.8 C)
Dew Point: 73.0 F (22.8 C)
Relative Humidity: 74%
Pressure (altimeter): 29.95 in. Hg (1014 hPa)
ob: KCUB 251953Z AUTO 30007KT 10SM FEW020 SCT042 28/23 A2995 RMK AO2 SLP138 T02780228 TSNO
cycle: 20

Station Type Date Time Source
KCUB TAF 2020/09/25 20:21 UTC NOAA

TAF
AMD KCUB 252018Z 2520/2618 27007KT P6SM VCSH SCT015 BKN040
FM260000 VRB04KT P6SM VCSH SCT008 BKN015
FM260500 00000KT 4SM BR OVC007
FM260800 VRB03KT 2SM BR OVC003
TEMPO 2610/2613 1/2SM FG OVC001
FM261500 VRB03KT 5SM BR OVC006

Example: see airport list